Manitou Springs, Colorado
Current Conditions -  °F | °C
As of 1:56 AM on Wednesday 26 Nov 2014 (Local Time) from KCWN Reporting Station
Broken Clouds Broken Clouds  
Wind Chill: 26°   Ceiling: 400
Heat Index: 26°   Visibility: 10mi
Dew Point: 25°   Wind: 3mph
Humidity: 96%   Direction: NA
Pressure: 30.07"   Gusts: NA
Location:  38.86°N, 104.92°W
Report Text: KCWN 260856Z AUTO VRB03KT 10SM BKN004 M03/M04 A3007 RMK AO2 BKN V OVC SLP200 T10321038 50016
Loading
Personal Weather Stations






























Interactive Weather Map New forecast layout! Learn more

10-Day Weather Forecast

Advertisements
Track Severe Weather on mobile